createdAt,value
2022-07-30T00:00:53.711Z,11.70
2022-07-30T00:03:21.224Z,8.02
2022-07-30T00:05:48.760Z,12.82
2022-07-30T00:08:16.213Z,11.02
2022-07-30T00:10:43.640Z,14.18
2022-07-30T00:13:14.262Z,14.38
2022-07-30T00:15:43.319Z,14.10
2022-07-30T00:18:11.916Z,16.88
2022-07-30T00:20:43.598Z,12.07
2022-07-30T00:25:39.306Z,13.38
2022-07-30T00:28:06.783Z,12.02
2022-07-30T00:30:34.314Z,12.13
2022-07-30T00:33:03.164Z,19.52
2022-07-30T00:35:30.781Z,17.35
2022-07-30T00:37:58.271Z,18.27
2022-07-30T00:40:25.859Z,17.48
2022-07-30T00:42:53.333Z,16.58
2022-07-30T00:45:20.815Z,15.68
2022-07-30T00:47:48.391Z,14.65
2022-07-30T00:50:17.224Z,15.40
2022-07-30T00:52:44.841Z,18.10
2022-07-30T00:55:15.346Z,15.73
2022-07-30T00:57:43.212Z,14.93
2022-07-30T01:00:12.123Z,18.45
2022-07-30T01:02:39.571Z,16.27
2022-07-30T01:05:07.768Z,15.73
2022-07-30T01:07:36.720Z,17.08
2022-07-30T01:10:04.741Z,19.40
2022-07-30T01:12:32.465Z,19.38
2022-07-30T01:15:00.596Z,17.80
2022-07-30T01:17:28.179Z,17.42
2022-07-30T01:19:58.775Z,17.85
2022-07-30T01:22:34.176Z,15.82
2022-07-30T01:25:06.775Z,16.92
2022-07-30T01:27:37.636Z,15.48
2022-07-30T01:30:06.502Z,13.13
2022-07-30T01:32:35.218Z,18.95
2022-07-30T01:35:03.382Z,14.65
2022-07-30T01:37:32.753Z,16.48
2022-07-30T01:40:00.726Z,17.98
2022-07-30T01:42:29.664Z,18.27
2022-07-30T01:44:59.451Z,16.15
2022-07-30T01:47:27.494Z,16.67
2022-07-30T01:49:55.917Z,19.48
2022-07-30T01:52:24.454Z,14.35
2022-07-30T01:54:53.233Z,14.98
2022-07-30T01:57:21.400Z,18.48
2022-07-30T01:59:50.963Z,18.20
2022-07-30T02:02:19.834Z,19.10
2022-07-30T02:04:47.492Z,20.77
2022-07-30T02:07:16.632Z,16.98
2022-07-30T02:09:47.392Z,15.60
2022-07-30T02:12:31.388Z,14.80
2022-07-30T02:15:04.079Z,19.83
2022-07-30T02:17:39.810Z,18.95
2022-07-30T02:20:10.961Z,16.67
2022-07-30T02:22:42.021Z,19.13
2022-07-30T02:25:10.506Z,17.27
2022-07-30T02:27:39.672Z,17.40
2022-07-30T02:30:08.156Z,16.23
2022-07-30T02:32:39.622Z,16.92
2022-07-30T02:35:10.571Z,17.40
2022-07-30T02:37:43.306Z,18.45
2022-07-30T02:40:12.238Z,16.25
2022-07-30T02:42:40.125Z,23.05
2022-07-30T02:45:08.147Z,16.85
2022-07-30T02:47:37.914Z,17.20
2022-07-30T02:50:06.295Z,18.77
2022-07-30T02:52:34.075Z,15.02
2022-07-30T02:55:02.081Z,14.68
2022-07-30T02:57:30.170Z,15.00
2022-07-30T02:59:59.367Z,17.45
2022-07-30T03:02:29.718Z,17.33
2022-07-30T03:05:00.910Z,22.95
2022-07-30T03:07:28.674Z,24.17
2022-07-30T03:09:56.952Z,17.70
2022-07-30T03:12:24.486Z,21.40
2022-07-30T03:14:52.695Z,21.73
2022-07-30T03:17:20.721Z,19.73
2022-07-30T03:19:49.314Z,16.67
2022-07-30T03:22:19.284Z,16.80
2022-07-30T03:24:48.198Z,20.85
2022-07-30T03:27:17.057Z,22.83
2022-07-30T03:29:45.830Z,18.08
2022-07-30T03:32:14.998Z,17.85
2022-07-30T03:34:43.759Z,20.35
2022-07-30T03:37:11.649Z,19.25
2022-07-30T03:39:40.877Z,18.40
2022-07-30T03:42:08.987Z,20.70
2022-07-30T03:44:37.155Z,19.85
2022-07-30T03:47:06.308Z,20.05
2022-07-30T03:49:36.210Z,16.83
2022-07-30T03:52:04.491Z,18.70
2022-07-30T03:54:33.106Z,17.52
2022-07-30T03:57:02.804Z,14.85
2022-07-30T03:59:30.721Z,16.85
2022-07-30T04:02:06.122Z,16.65
2022-07-30T04:04:35.085Z,19.17
2022-07-30T04:07:02.623Z,17.92
2022-07-30T04:09:30.208Z,18.70
2022-07-30T04:11:57.658Z,19.75
2022-07-30T04:14:26.882Z,17.48
2022-07-30T04:16:57.966Z,16.30
2022-07-30T04:19:27.236Z,16.50
2022-07-30T04:21:55.005Z,20.63
2022-07-30T04:24:23.391Z,20.52
2022-07-30T04:26:51.120Z,20.30
2022-07-30T04:29:22.667Z,21.95
2022-07-30T04:31:53.158Z,20.13
2022-07-30T04:34:20.605Z,19.10
2022-07-30T04:36:48.047Z,22.83
2022-07-30T04:39:15.853Z,23.17
2022-07-30T04:41:48.813Z,23.42
2022-07-30T04:44:17.936Z,20.75
2022-07-30T04:46:45.551Z,21.58
2022-07-30T04:49:15.738Z,22.13
2022-07-30T04:51:43.519Z,19.95
2022-07-30T04:54:15.514Z,21.30
2022-07-30T04:56:52.510Z,19.42
2022-07-30T04:59:22.641Z,16.23
2022-07-30T05:01:51.084Z,16.52
2022-07-30T05:04:20.388Z,24.42
2022-07-30T05:06:48.247Z,22.73
2022-07-30T05:09:16.113Z,18.85
2022-07-30T05:11:44.412Z,18.73
2022-07-30T05:14:12.179Z,19.88
2022-07-30T05:16:39.647Z,19.75
2022-07-30T05:19:07.559Z,17.67
2022-07-30T05:21:36.842Z,18.58
2022-07-30T05:24:04.706Z,17.92
2022-07-30T05:26:32.215Z,19.33
2022-07-30T05:28:59.714Z,22.90
2022-07-30T05:31:29.327Z,16.55
2022-07-30T05:34:02.791Z,26.13
2022-07-30T05:36:30.883Z,16.50
2022-07-30T05:39:00.175Z,18.30
2022-07-30T05:41:32.643Z,22.35
2022-07-30T05:44:01.168Z,21.65
2022-07-30T05:46:29.048Z,17.95
2022-07-30T05:48:56.576Z,19.50
2022-07-30T05:51:24.112Z,15.55
2022-07-30T05:53:51.779Z,15.18
2022-07-30T05:56:20.667Z,17.67
2022-07-30T05:58:48.134Z,13.35
2022-07-30T06:01:15.647Z,14.10
2022-07-30T06:03:43.153Z,18.90
2022-07-30T06:06:10.688Z,17.52
2022-07-30T06:08:38.647Z,13.57
2022-07-30T06:11:06.130Z,14.13
2022-07-30T06:13:34.927Z,12.63
2022-07-30T06:16:02.423Z,12.75
2022-07-30T06:18:29.894Z,15.65
2022-07-30T06:20:57.447Z,15.75
2022-07-30T06:23:24.950Z,12.35
2022-07-30T06:25:52.401Z,16.13
2022-07-30T06:28:38.070Z,12.40
2022-07-30T06:31:07.658Z,12.63
2022-07-30T06:33:35.355Z,13.82
2022-07-30T06:36:02.854Z,13.77
2022-07-30T06:38:30.319Z,11.50
2022-07-30T06:41:02.521Z,10.85
2022-07-30T06:43:31.808Z,13.70
2022-07-30T06:45:59.294Z,9.57
2022-07-30T06:48:28.181Z,10.20
2022-07-30T06:50:55.634Z,12.18
2022-07-30T06:53:23.163Z,8.93
2022-07-30T06:55:51.158Z,11.55
2022-07-30T06:58:25.676Z,12.98
2022-07-30T07:00:53.394Z,9.82
2022-07-30T07:03:21.333Z,12.25
2022-07-30T07:05:50.195Z,8.80
2022-07-30T07:08:18.450Z,12.48
2022-07-30T07:10:45.974Z,10.35
2022-07-30T07:13:13.590Z,8.85
2022-07-30T07:15:41.127Z,11.00
2022-07-30T07:18:08.805Z,9.63
2022-07-30T07:20:36.508Z,8.60
2022-07-30T07:23:09.437Z,8.77
2022-07-30T07:25:40.033Z,7.95
2022-07-30T07:28:12.548Z,11.13
2022-07-30T07:30:41.298Z,7.88
2022-07-30T07:33:09.019Z,8.73
2022-07-30T07:35:45.478Z,7.57
2022-07-30T07:38:18.263Z,6.57
2022-07-30T07:40:45.906Z,9.60
2022-07-30T07:43:13.458Z,8.43
2022-07-30T07:45:41.355Z,9.70
2022-07-30T07:48:10.748Z,10.00
2022-07-30T07:50:38.494Z,6.60
2022-07-30T07:53:06.568Z,7.22
2022-07-30T07:55:35.753Z,8.18
2022-07-30T07:58:03.250Z,9.60
2022-07-30T08:00:31.775Z,9.65
2022-07-30T08:02:59.295Z,10.23
2022-07-30T08:06:01.747Z,7.22
2022-07-30T08:08:14.908Z,7.82
2022-07-30T08:10:43.707Z,8.00
2022-07-30T08:13:48.024Z,6.88
2022-07-30T08:15:58.859Z,7.72
2022-07-30T08:18:26.321Z,8.65
2022-07-30T08:20:53.830Z,5.03
2022-07-30T08:23:22.290Z,6.40
2022-07-30T08:25:51.118Z,6.78
2022-07-30T08:28:35.126Z,8.13
2022-07-30T08:31:03.862Z,7.82
2022-07-30T08:33:31.447Z,4.82
2022-07-30T08:35:59.316Z,6.28
2022-07-30T08:38:32.092Z,10.25
2022-07-30T08:41:01.056Z,5.40
2022-07-30T08:43:32.090Z,6.43
2022-07-30T08:46:00.036Z,4.25
2022-07-30T08:48:27.900Z,4.72
2022-07-30T08:50:55.547Z,6.35
2022-07-30T08:53:23.090Z,5.43
2022-07-30T08:55:50.622Z,5.63
2022-07-30T08:58:25.101Z,4.32
2022-07-30T09:00:52.923Z,4.95
2022-07-30T09:03:20.505Z,4.30
2022-07-30T09:05:48.164Z,5.22
2022-07-30T09:08:18.583Z,6.03
2022-07-30T09:10:52.958Z,4.10
2022-07-30T09:13:27.149Z,3.72
2022-07-30T09:15:54.968Z,5.78
2022-07-30T09:18:32.370Z,3.88
2022-07-30T09:21:00.384Z,6.40
2022-07-30T09:23:27.936Z,6.25
2022-07-30T09:25:56.982Z,4.97
2022-07-30T09:28:32.974Z,5.00
2022-07-30T09:31:00.847Z,5.93
2022-07-30T09:33:36.020Z,3.35
2022-07-30T09:36:04.338Z,3.22
2022-07-30T09:38:42.362Z,4.07
2022-07-30T09:41:29.095Z,3.97
2022-07-30T09:43:59.014Z,5.18
2022-07-30T09:46:41.226Z,5.82
2022-07-30T09:49:14.692Z,4.30
2022-07-30T09:51:56.596Z,4.63
2022-07-30T09:54:51.400Z,6.47
2022-07-30T09:57:25.656Z,2.53
2022-07-30T09:59:56.818Z,3.45
2022-07-30T10:02:31.908Z,3.67
2022-07-30T10:05:09.395Z,4.18
2022-07-30T10:07:42.716Z,3.90
2022-07-30T10:10:11.714Z,3.40
2022-07-30T10:12:39.392Z,5.18
2022-07-30T10:15:09.742Z,4.07
2022-07-30T10:17:41.685Z,5.28
2022-07-30T10:20:09.850Z,4.25
2022-07-30T10:22:39.868Z,5.20
2022-07-30T10:25:11.127Z,3.30
2022-07-30T10:27:44.087Z,4.05
2022-07-30T10:30:13.887Z,3.63
2022-07-30T10:32:42.423Z,3.20
2022-07-30T10:35:10.394Z,2.67
2022-07-30T10:37:38.705Z,3.22
2022-07-30T10:40:11.169Z,5.45
2022-07-30T10:42:49.124Z,7.82
2022-07-30T10:45:19.893Z,3.08
2022-07-30T10:47:48.913Z,3.28
2022-07-30T10:50:22.061Z,2.97
2022-07-30T10:52:53.947Z,3.28
2022-07-30T10:55:37.497Z,3.42
2022-07-30T10:58:07.926Z,2.05
2022-07-30T11:00:38.305Z,3.00
2022-07-30T11:03:14.807Z,2.00
2022-07-30T11:05:45.237Z,3.13
2022-07-30T11:08:36.135Z,2.13
2022-07-30T11:11:19.772Z,2.63
2022-07-30T11:13:52.316Z,3.10
2022-07-30T11:16:23.614Z,2.75
2022-07-30T11:19:27.274Z,1.48
2022-07-30T11:22:13.914Z,3.67
2022-07-30T11:24:43.447Z,2.55
2022-07-30T11:29:50.544Z,1.95
2022-07-30T11:32:27.784Z,1.85
2022-07-30T11:35:13.389Z,1.45
2022-07-30T11:37:57.342Z,4.05
2022-07-30T11:40:26.361Z,2.97
2022-07-30T11:43:09.269Z,3.35
2022-07-30T11:45:36.827Z,2.78
2022-07-30T11:48:10.561Z,3.80
2022-07-30T11:50:38.587Z,2.30
2022-07-30T11:53:07.155Z,2.35
2022-07-30T11:55:35.733Z,1.83
2022-07-30T11:58:03.778Z,1.85
2022-07-30T12:00:35.214Z,2.50
2022-07-30T12:03:09.565Z,2.88
2022-07-30T12:05:37.028Z,2.40
2022-07-30T12:08:05.348Z,2.00
2022-07-30T12:10:35.928Z,2.10
2022-07-30T12:13:07.784Z,2.20
2022-07-30T12:15:36.396Z,1.75
2022-07-30T12:18:26.312Z,2.45
2022-07-30T12:20:57.667Z,1.63
2022-07-30T12:23:27.385Z,2.63
2022-07-30T12:25:55.369Z,2.40
2022-07-30T12:28:23.492Z,5.40
2022-07-30T12:30:51.308Z,3.00
2022-07-30T12:33:18.953Z,2.42
2022-07-30T12:35:46.939Z,4.00
2022-07-30T12:38:16.188Z,2.45
2022-07-30T12:40:53.796Z,2.80
2022-07-30T12:43:42.120Z,3.27
2022-07-30T12:46:14.536Z,8.95
2022-07-30T12:48:52.361Z,10.30
2022-07-30T12:51:20.276Z,2.33
2022-07-30T12:54:19.463Z,2.20
2022-07-30T12:56:57.213Z,4.70
2022-07-30T12:59:25.881Z,1.27
2022-07-30T13:02:03.558Z,1.27
2022-07-30T13:04:31.807Z,3.05
2022-07-30T13:07:05.903Z,2.45
2022-07-30T13:09:35.129Z,1.90
2022-07-30T13:12:03.148Z,2.42
2022-07-30T13:14:30.687Z,3.60
2022-07-30T13:16:58.702Z,2.42
2022-07-30T13:19:26.421Z,1.65
2022-07-30T13:21:53.907Z,3.33
2022-07-30T13:24:21.665Z,2.45
2022-07-30T13:26:50.579Z,1.98
2022-07-30T13:29:18.817Z,1.30
2022-07-30T13:31:46.307Z,2.50
2022-07-30T13:34:13.812Z,4.72
2022-07-30T13:36:41.710Z,2.28
2022-07-30T13:39:09.250Z,2.40
2022-07-30T13:41:37.054Z,3.42
2022-07-30T13:44:08.617Z,5.35
2022-07-30T13:46:36.172Z,4.85
2022-07-30T13:49:04.528Z,2.13
2022-07-30T13:51:32.084Z,2.88
2022-07-30T13:53:59.574Z,1.60
2022-07-30T13:56:27.946Z,3.03
2022-07-30T13:58:55.599Z,2.03
2022-07-30T14:01:24.422Z,2.83
2022-07-30T14:03:51.957Z,1.63
2022-07-30T14:06:19.757Z,4.70
2022-07-30T14:08:47.263Z,2.38
2022-07-30T14:11:15.520Z,1.63
2022-07-30T14:13:43.035Z,3.67
2022-07-30T14:16:35.332Z,1.42
2022-07-30T14:18:59.796Z,2.53
2022-07-30T14:21:29.539Z,2.20
2022-07-30T14:23:57.834Z,2.00
2022-07-30T14:26:25.332Z,3.33
2022-07-30T14:28:57.691Z,2.25
2022-07-30T14:31:25.142Z,2.70
2022-07-30T14:33:52.639Z,4.43
2022-07-30T14:36:21.497Z,3.55
2022-07-30T14:38:48.998Z,1.92
2022-07-30T14:41:16.581Z,2.83
2022-07-30T14:43:44.066Z,2.47
2022-07-30T14:46:11.534Z,2.30
2022-07-30T14:48:39.000Z,4.90
2022-07-30T14:51:17.659Z,5.00
2022-07-30T14:53:50.273Z,4.82
2022-07-30T14:56:18.019Z,1.80
2022-07-30T14:58:45.616Z,2.63
2022-07-30T15:01:15.686Z,4.05
2022-07-30T15:03:43.818Z,2.67
2022-07-30T15:06:12.723Z,3.38
2022-07-30T15:08:40.478Z,5.30
2022-07-30T15:11:09.598Z,3.78
2022-07-30T15:13:49.644Z,2.22
2022-07-30T15:16:18.378Z,2.38
2022-07-30T15:18:45.910Z,4.13
2022-07-30T15:21:13.401Z,1.88
2022-07-30T15:23:40.907Z,2.20
2022-07-30T15:26:09.732Z,3.95
2022-07-30T15:28:37.247Z,3.63
2022-07-30T15:31:04.713Z,2.58
2022-07-30T15:33:36.139Z,2.28
2022-07-30T15:36:04.862Z,3.45
2022-07-30T15:38:32.321Z,2.67
2022-07-30T15:40:59.836Z,3.08
2022-07-30T15:43:28.692Z,3.80
2022-07-30T15:45:56.704Z,4.43
2022-07-30T15:48:24.983Z,1.55
2022-07-30T15:50:54.743Z,1.95
2022-07-30T15:53:22.641Z,3.13
2022-07-30T15:55:50.087Z,4.90
2022-07-30T15:58:17.864Z,3.50
2022-07-30T16:00:47.118Z,1.95
2022-07-30T16:03:14.630Z,3.60
2022-07-30T16:05:51.095Z,1.77
2022-07-30T16:08:21.468Z,3.70
2022-07-30T16:10:49.031Z,2.67
2022-07-30T16:13:16.700Z,2.92
2022-07-30T16:15:44.213Z,4.63
2022-07-30T16:18:14.054Z,3.53
2022-07-30T16:20:41.537Z,3.67
2022-07-30T16:23:13.388Z,6.70
2022-07-30T16:25:44.051Z,2.40
2022-07-30T16:28:11.576Z,3.28
2022-07-30T16:30:51.427Z,3.60
2022-07-30T16:33:21.014Z,4.05
2022-07-30T16:35:51.280Z,5.07
2022-07-30T16:38:19.114Z,5.13
2022-07-30T16:40:46.677Z,2.78
2022-07-30T16:43:15.589Z,2.25
2022-07-30T16:45:44.625Z,4.05
2022-07-30T16:48:13.668Z,2.80
2022-07-30T16:50:42.759Z,2.03
2022-07-30T16:53:14.355Z,3.28
2022-07-30T16:55:42.260Z,3.53
2022-07-30T16:58:09.828Z,4.18
2022-07-30T17:00:37.587Z,3.67
2022-07-30T17:03:05.206Z,6.07
2022-07-30T17:05:32.750Z,4.50
2022-07-30T17:08:01.621Z,4.40
2022-07-30T17:10:29.093Z,3.92
2022-07-30T17:12:57.510Z,4.28
2022-07-30T17:15:32.632Z,2.40
2022-07-30T17:18:00.723Z,8.25
2022-07-30T17:20:28.355Z,6.28
2022-07-30T17:22:56.153Z,4.38
2022-07-30T17:25:27.232Z,2.35
2022-07-30T17:27:54.792Z,2.97
2022-07-30T17:30:23.205Z,2.92
2022-07-30T17:32:51.105Z,4.65
2022-07-30T17:35:18.560Z,2.17
2022-07-30T17:37:46.056Z,4.90
2022-07-30T17:40:28.370Z,5.43
2022-07-30T17:43:03.576Z,5.03
2022-07-30T17:45:31.901Z,5.30
2022-07-30T17:48:01.369Z,3.25
2022-07-30T17:50:29.132Z,4.20
2022-07-30T17:52:56.573Z,3.45
2022-07-30T17:55:24.081Z,2.92
2022-07-30T17:57:51.569Z,3.28
2022-07-30T18:00:20.470Z,3.83
2022-07-30T18:02:48.355Z,6.05
2022-07-30T18:05:16.012Z,5.30
2022-07-30T18:07:43.540Z,4.15
2022-07-30T18:10:11.411Z,2.60
2022-07-30T18:12:39.021Z,4.88
2022-07-30T18:15:16.246Z,3.17
2022-07-30T18:17:45.044Z,4.13
2022-07-30T18:20:12.745Z,3.92
2022-07-30T18:22:40.452Z,3.85
2022-07-30T18:25:18.041Z,3.05
2022-07-30T18:27:47.088Z,4.18
2022-07-30T18:30:14.733Z,2.85
2022-07-30T18:32:42.200Z,5.18
2022-07-30T18:35:14.421Z,3.65
2022-07-30T18:37:42.158Z,3.17
2022-07-30T18:40:13.160Z,5.03
2022-07-30T18:42:40.682Z,3.15
2022-07-30T18:45:08.669Z,3.47
2022-07-30T18:47:36.134Z,5.60
2022-07-30T18:50:05.144Z,1.98
2022-07-30T18:52:34.079Z,4.45
2022-07-30T18:55:02.534Z,3.75
2022-07-30T18:57:29.945Z,4.03
2022-07-30T18:59:57.515Z,6.38
2022-07-30T19:02:25.541Z,3.50
2022-07-30T19:04:53.247Z,4.22
2022-07-30T19:07:21.156Z,4.53
2022-07-30T19:09:49.972Z,3.78
2022-07-30T19:12:17.486Z,4.00
2022-07-30T19:14:45.450Z,2.92
2022-07-30T19:17:13.870Z,2.47
2022-07-30T19:19:41.722Z,5.25
2022-07-30T19:22:09.273Z,2.30
2022-07-30T19:24:36.752Z,6.03
2022-07-30T19:27:06.074Z,5.53
2022-07-30T19:29:33.527Z,5.53
2022-07-30T19:32:01.366Z,3.20
2022-07-30T19:34:31.449Z,4.00
2022-07-30T19:36:58.883Z,4.55
2022-07-30T19:39:26.824Z,3.10
2022-07-30T19:41:54.341Z,3.70
2022-07-30T19:44:23.108Z,2.65
2022-07-30T19:46:51.850Z,6.40
2022-07-30T19:49:19.799Z,4.32
2022-07-30T19:52:10.768Z,3.70
2022-07-30T19:54:36.881Z,2.33
2022-07-30T19:57:04.636Z,3.65
2022-07-30T19:59:45.258Z,5.57
2022-07-30T20:02:15.556Z,3.50
2022-07-30T20:04:43.703Z,3.22
2022-07-30T20:07:11.394Z,4.10
2022-07-30T20:09:42.955Z,3.10
2022-07-30T20:12:14.393Z,4.20
2022-07-30T20:14:43.433Z,3.67
2022-07-30T20:17:11.613Z,4.50
2022-07-30T20:19:40.675Z,3.50
2022-07-30T20:22:15.601Z,3.53
2022-07-30T20:24:43.155Z,4.00
2022-07-30T20:27:36.428Z,3.35
2022-07-30T20:30:00.389Z,2.83
2022-07-30T20:32:29.176Z,3.63
2022-07-30T20:34:56.893Z,3.55
2022-07-30T20:37:24.305Z,3.45
2022-07-30T20:39:55.768Z,4.47
2022-07-30T20:42:23.874Z,4.55
2022-07-30T20:45:02.768Z,2.65
2022-07-30T20:50:30.578Z,9.45
2022-07-30T20:52:58.837Z,4.40
2022-07-30T20:55:26.282Z,2.38
2022-07-30T20:58:00.320Z,5.68
2022-07-30T21:00:37.631Z,2.05
2022-07-30T21:03:05.491Z,3.22
2022-07-30T21:05:35.382Z,4.65
2022-07-30T21:08:03.608Z,4.10
2022-07-30T21:10:33.734Z,2.78
2022-07-30T21:13:03.454Z,3.50
2022-07-30T21:15:36.148Z,3.90
2022-07-30T21:18:04.992Z,4.40
2022-07-30T21:20:33.528Z,3.47
2022-07-30T21:23:04.893Z,3.38
2022-07-30T21:25:33.401Z,5.65
2022-07-30T21:28:03.005Z,6.18
2022-07-30T21:30:30.771Z,2.30
2022-07-30T21:33:00.803Z,2.42
2022-07-30T21:35:31.747Z,4.80
2022-07-30T21:37:59.832Z,3.67
2022-07-30T21:40:28.616Z,3.90
2022-07-30T21:42:56.411Z,3.30
2022-07-30T21:45:24.015Z,3.63
2022-07-30T21:47:55.845Z,4.32
2022-07-30T21:50:23.623Z,2.78
2022-07-30T21:52:52.431Z,3.60
2022-07-30T21:55:21.429Z,3.25
2022-07-30T21:57:48.988Z,2.75
2022-07-30T22:00:21.921Z,3.85
2022-07-30T22:05:38.721Z,4.38
2022-07-30T22:08:08.492Z,2.67
2022-07-30T22:10:37.882Z,5.10
2022-07-30T22:15:36.299Z,3.22
2022-07-30T22:18:05.430Z,5.13
2022-07-30T22:20:33.474Z,6.35
2022-07-30T22:23:02.945Z,2.92
2022-07-30T22:25:44.118Z,4.80
2022-07-30T22:28:12.893Z,3.45
2022-07-30T22:30:41.047Z,4.18
2022-07-30T22:33:10.083Z,4.35
2022-07-30T22:35:37.531Z,3.20
2022-07-30T22:38:06.863Z,6.90
2022-07-30T22:40:37.705Z,3.50
2022-07-30T22:43:07.604Z,5.10
2022-07-30T22:45:49.511Z,3.53
2022-07-30T22:48:19.146Z,4.55
2022-07-30T22:50:53.690Z,4.18
2022-07-30T22:54:03.098Z,4.50
2022-07-30T22:56:14.073Z,2.67
2022-07-30T22:58:41.705Z,3.80
2022-07-30T23:01:11.000Z,3.65
2022-07-30T23:03:38.697Z,6.85
2022-07-30T23:06:14.762Z,3.50
2022-07-30T23:08:43.917Z,4.22
2022-07-30T23:11:12.703Z,3.95
2022-07-30T23:12:31.100Z,3.40
2022-07-30T23:12:31.475Z,2.83
2022-07-30T23:13:40.182Z,3.78
2022-07-30T23:16:07.707Z,4.13
2022-07-30T23:18:35.758Z,5.55
2022-07-30T23:21:03.311Z,4.10
2022-07-30T23:23:33.791Z,3.72
2022-07-30T23:28:30.805Z,3.45
2022-07-30T23:30:59.091Z,2.90
2022-07-30T23:33:26.582Z,4.72
2022-07-30T23:35:54.082Z,4.55
2022-07-30T23:38:22.226Z,4.90
2022-07-30T23:40:49.690Z,5.60
2022-07-30T23:43:17.161Z,6.00
2022-07-30T23:45:46.054Z,4.93
2022-07-30T23:48:13.524Z,6.97
2022-07-30T23:50:40.963Z,4.70
2022-07-30T23:53:08.388Z,5.13
2022-07-30T23:55:36.024Z,4.07
2022-07-30T23:58:03.499Z,5.60
